ADDS METAR Data INFO
IDs: Format: Raw Decoded Include TAF

Data at: 1547 UTC 12 Dec 2017

PAGK 121453Z AUTO 15004KT 10SM FEW080 OVC100 M02/M04 A2980 RMK AO2 SLP117 T10221044 53006 TSNO $
PAGK 121353Z AUTO 14006KT 10SM FEW120 M02/M04 A2978 RMK AO2 SLP112 T10221044 TSNO $
PAGK 121253Z AUTO 12003KT 10SM CLR M02/M04 A2977 RMK AO2 SLP107 T10171044 TSNO $
PAGK 121153Z AUTO 00000KT 10SM CLR M02/M04 A2978 RMK AO2 SLP111 70001 T10221044 10017 21033 58004 TSNO $
PAGK 121053Z AUTO 17004KT 10SM CLR M03/M04 A2979 RMK AO2 SLP113 T10281044 TSNO $
PAGK 120953Z AUTO 14004KT 10SM CLR M02/M05 A2980 RMK AO2 SLP116 T10221050 TSNO $
PAGK 120853Z AUTO 17008KT 10SM CLR M01/M04 A2979 RMK AO2 SLP114 T10061039 400331028 53002 TSNO $
PAGK 120753Z AUTO 16011KT 10SM CLR 00/M04 A2980 RMK AO2 SLP114 T00001039 TSNO $
PAGK 120653Z AUTO 15016KT 10SM FEW120 01/M04 A2978 RMK AO2 SLP108 T00111039 TSNO $
PAGK 120553Z AUTO 16014KT 10SM FEW120 02/M04 A2979 RMK AO2 SLP108 T00171039 10028 20011 50009 TSNO $
PAGK 120453Z AUTO 15011KT 10SM CLR 01/M03 A2979 RMK AO2 SLP111 T00111033 TSNO $
PAGK 120353Z AUTO 16019G24KT 10SM CLR 01/M03 A2978 RMK AO2 PK WND 17028/0333 SLP105 T00111028 TSNO $
PAGK 120253Z AUTO 18012G21KT 10SM CLR 02/M03 A2976 RMK AO2 PK WND 16029/0221 SLP098 T00171033 50007 TSNO $
PAGK 120153Z AUTO 17017G27KT 10SM CLR 02/M03 A2977 RMK AO2 PK WND 16030/0111 SLP104 T00171028 TSNO $
PAGK 120053Z AUTO 16021KT 10SM CLR 02/M03 A2975 RMK AO2 PK WND 16031/2359 SLP097 T00221028 TSNO $
PAGK 112353Z AUTO 17019G28KT 10SM CLR 02/M03 A2974 RMK AO2 PK WND 16032/2325 SLP095 T00221028 10028 20022 51034 TSNO $
PAGK 112253Z AUTO 17018G26KT 10SM CLR 02/M02 A2972 RMK AO2 PK WND 18031/2224 SLP090 T00221022 TSNO $
PAGK 112153Z AUTO 17019G28KT 10SM CLR 03/M02 A2969 RMK AO2 PK WND 17034/2107 SLP080 T00281017 TSNO $
PAGK 112053Z AUTO 17027G36KT 10SM CLR 03/M02 A2963 RMK AO2 PK WND 17039/2023 SLP060 T00281017 51053 TSNO $
PAGK 111953Z AUTO 17019G25KT 10SM CLR 02/M01 A2960 RMK AO2 PK WND 17032/1907 SLP049 T00221006 TSNO $
PAGK 111853Z AUTO 16023G30KT 10SM CLR 02/M01 A2953 RMK AO2 PK WND 15034/1754 PRESRR SLP026 T00221006 TSNO $
PAGK 111753Z AUTO 15021G28KT 10SM CLR 03/M01 A2947 RMK AO2 PK WND 14036/1736 SLP003 60001 I6001 T00281006 10033 21017 53057 TSNO $
PAGK 111653Z AUTO 15022G30KT 10SM CLR 02/00 A2939 RMK AO2 PK WND 16037/1628 PRESRR SLP977 T00220000 TSNO $
PAGK 111553Z AUTO 16029G39KT 10SM CLR 03/00 A2932 RMK AO2 PK WND 16039/1553 SLP951 T00280000 TSNO $
PAGK 111453Z AUTO 16017G25KT 10SM CLR 02/01 A2929 RMK AO2 PK WND 16026/1439 SLP943 60001 I3001 T00220006 53023 TSNO $
PAGK 111353Z AUTO 15012KT 10SM CLR 02/01 A2927 RMK AO2 UPE00RAB00E06 PRESRR SLP937 P0000 T00220011 TSNO $
PAGK 111253Z AUTO 12007KT 10SM UP BKN047 OVC070 01/M01 A2923 RMK AO2 UPE07B50RAB35E39B48E50FZRAB07E35 SLP921 P0001 I1001 T00061011 TSNO $
PAGK 111241Z AUTO 12008KT 10SM BKN050 OVC075 01/M01 A2923 RMK AO2 UPE07RAB35E39FZRAB07E35 P0001 I1001 T00061011 TSNO $
PAGK 111213Z AUTO 00000KT 10SM -FZRA FEW016 BKN055 OVC070 M01/M02 A2923 RMK AO2 UPE07FZRAB07 P0001 I1001 T10061022 TSNO $
PAGK 111153Z AUTO 32004KT 10SM UP FEW016 BKN050 OVC070 M01/M03 A2922 RMK AO2 UPB41SNB23E41 SLP920 P0000 60000 70001 T10111033 11011 21028 56022 TSNO $
PAGK 111053Z AUTO 30005KT 10SM BKN075 OVC090 M02/M04 A2923 RMK AO2 SLP924 T10221044 TSNO $
PAGK 110953Z AUTO 36008KT 10SM SCT110 M02/M03 A2921 RMK AO2 SNE0859 PRESFR SLP914 P0000 T10221033 TSNO $
PAGK 110853Z AUTO 02007KT 8SM -SN SCT034 OVC050 M02/M03 A2929 RMK AO2 SNB45 SLP943 P0000 60000 T10171028 400171028 57046 TSNO $
PAGK 110753Z AUTO 04007KT 10SM SCT045 SCT090 BKN120 M02/M03 A2934 RMK AO2 SLP960 T10221028 TSNO $
PAGK 110653Z AUTO 01005KT 10SM FEW034 BKN046 OVC085 M02/M03 A2938 RMK AO2 SNB10E44 SLP975 P0000 T10221028 TSNO $
PAGK 110553Z AUTO 36011KT 8SM OVC030 M02/M03 A2943 RMK AO2 SNB14E53 PRESFR SLP991 P0001 60001 T10171033 10006 21028 56047 TSNO $
PAGK 110546Z AUTO 35011KT 6SM -SN BR OVC028 M02/M04 A2944 RMK AO2 SNB14 PRESFR P0001 T10171039 TSNO $
PAGK 110537Z AUTO 35011KT 2 1/2SM -SN BR OVC026 M02/M04 A2945 RMK AO2 SNB14 PRESFR P0001 T10171039 TSNO $
PAGK 110528Z AUTO 34007KT 3SM -SN BR OVC024 M02/M04 A2947 RMK AO2 SNB14 P0001 T10221039 TSNO $
PAGK 110453Z AUTO 29003KT 10SM OVC042 M02/M05 A2949 RMK AO2 SLP012 T10171050 TSNO $
PAGK 110353Z AUTO 01006KT 10SM OVC060 M02/M06 A2951 RMK AO2 SLP019 T10171056 TSNO $